Time;durP1;ratioP1;P1;durP2;ratioP2;P2;SDS_P1;SDS_P2;PMS_P1;PMS_P2;Temp;Humidity;BMP_temperature;BMP_pressure;BME280_temperature;BME280_humidity;BME280_pressure;Samples;Min_cycle;Max_cycle;Signal;HPM_P1;HPM_P2
2023/05/03 00:01:00;;;;;;;7.20;6.50;;;;;;;5.44;100.00;97094.31;7397814;19;20376;-76
2023/05/03 00:03:27;;;;;;;7.73;7.03;;;;;;;5.56;100.00;97127.03;7400829;19;20380;-76
2023/05/03 00:05:54;;;;;;;9.23;6.97;;;;;;;5.25;100.00;97073.25;7397964;19;20341;-76
2023/05/03 00:08:21;;;;;;;8.83;6.50;;;;;;;5.63;100.00;97119.63;7396682;19;20389;-76
2023/05/03 00:10:48;;;;;;;6.40;5.80;;;;;;;5.39;100.00;97092.53;7401927;19;20494;-75
2023/05/03 00:13:15;;;;;;;8.50;6.50;;;;;;;5.28;100.00;97089.19;7399695;19;20468;-76
2023/05/03 00:15:42;;;;;;;10.60;7.70;;;;;;;5.39;100.00;97081.25;7397185;19;20971;-76
2023/05/03 00:18:09;;;;;;;9.13;6.13;;;;;;;5.45;100.00;97106.38;7397964;19;20793;-76
2023/05/03 00:20:36;;;;;;;7.47;6.47;;;;;;;5.29;100.00;97106.50;7398577;19;20376;-76
2023/05/03 00:23:03;;;;;;;9.20;7.17;;;;;;;5.35;100.00;97123.00;7399055;19;20401;-76
2023/05/03 00:25:30;;;;;;;7.53;6.73;;;;;;;5.41;100.00;97095.66;7399059;19;20356;-76
2023/05/03 00:27:57;;;;;;;8.90;8.00;;;;;;;5.62;100.00;97114.66;7397086;19;20432;-76
2023/05/03 00:30:24;;;;;;;8.90;8.00;;;;;;;5.58;100.00;97113.63;7397659;19;20376;-76
2023/05/03 00:32:51;;;;;;;10.20;8.70;;;;;;;5.34;100.00;97075.00;7399377;19;20419;-76
2023/05/03 00:35:18;;;;;;;8.03;7.23;;;;;;;5.62;100.00;97125.94;7396630;19;20737;-76
2023/05/03 00:37:45;;;;;;;8.03;6.83;;;;;;;5.27;100.00;97098.13;7397813;19;21129;-76
2023/05/03 00:40:14;;;;;;;8.43;7.37;;;;;;;5.17;100.00;97084.28;7398779;19;20352;-76
2023/05/03 00:42:41;;;;;;;7.10;6.50;;;;;;;4.98;100.00;97090.19;7398919;19;20401;-76
2023/05/03 00:45:08;;;;;;;8.93;7.60;;;;;;;5.14;100.00;97101.34;7399702;19;20348;-76
2023/05/03 00:47:36;;;;;;;9.30;7.23;;;;;;;5.27;100.00;97113.06;7400816;19;20421;-76
2023/05/03 00:50:04;;;;;;;8.50;7.63;;;;;;;5.24;100.00;97096.06;7396841;19;20393;-76
2023/05/03 00:52:32;;;;;;;11.67;8.77;;;;;;;5.25;100.00;97089.75;7397881;19;20349;-76
2023/05/03 00:54:59;;;;;;;9.77;6.63;;;;;;;5.20;100.00;97081.91;7396691;19;20369;-76
2023/05/03 00:57:28;;;;;;;9.13;8.03;;;;;;;5.42;100.00;97107.72;7398143;19;20385;-76
2023/05/03 00:59:58;;;;;;;7.63;6.73;;;;;;;5.23;100.00;97109.44;7396451;19;20361;-76
2023/05/03 01:02:26;;;;;;;8.50;7.07;;;;;;;5.00;100.00;97121.34;7398235;19;20909;-76
2023/05/03 01:04:54;;;;;;;10.73;7.33;;;;;;;4.73;100.00;97093.72;7397381;19;20376;-76
2023/05/03 01:07:36;;;;;;;8.97;7.40;;;;;;;4.59;100.00;97116.28;7396414;19;20401;-76
2023/05/03 01:10:16;;;;;;;12.63;7.67;;;;;;;4.46;100.00;97103.78;7397257;19;20385;-76
2023/05/03 01:13:07;;;;;;;8.50;6.90;;;;;;;4.67;100.00;97105.28;7396313;19;20467;-76
2023/05/03 01:16:18;;;;;;;8.97;8.00;;;;;;;4.53;100.00;97067.59;7394932;19;20385;-76
2023/05/03 01:18:49;;;;;;;7.63;6.57;;;;;;;4.73;100.00;97106.03;7392196;19;20520;-76
2023/05/03 01:21:18;;;;;;;10.23;7.07;;;;;;;4.21;100.00;97048.88;7391229;19;20345;-76
2023/05/03 01:24:02;;;;;;;11.70;7.97;;;;;;;4.19;100.00;97066.69;7392813;19;20767;-76
2023/05/03 01:26:29;;;;;;;9.30;7.47;;;;;;;4.10;100.00;97058.59;7394878;19;20356;-76
2023/05/03 01:28:56;;;;;;;9.60;7.60;;;;;;;4.21;100.00;97096.00;7391452;19;20472;-76
2023/05/03 01:31:32;;;;;;;10.50;8.03;;;;;;;3.94;100.00;97073.53;7395081;19;20417;-76
2023/05/03 01:34:17;;;;;;;11.13;8.60;;;;;;;4.17;100.00;97092.34;7394173;19;20364;-76
2023/05/03 01:36:44;;;;;;;14.47;10.60;;;;;;;4.13;100.00;97076.38;7392647;19;20863;-76
2023/05/03 01:39:21;;;;;;;11.87;9.17;;;;;;;4.10;100.00;97093.41;7392920;19;20424;-75
2023/05/03 01:41:52;;;;;;;13.53;10.07;;;;;;;4.14;100.00;97081.38;7393035;19;20393;-75
2023/05/03 01:44:21;;;;;;;13.57;10.97;;;;;;;3.94;100.00;97078.78;7394908;19;20384;-76
2023/05/03 01:46:48;;;;;;;15.70;9.77;;;;;;;4.02;100.00;97080.88;7392406;19;20908;-76
2023/05/03 01:49:15;;;;;;;14.40;11.10;;;;;;;3.95;100.00;97067.25;7394054;19;20412;-76
2023/05/03 01:51:42;;;;;;;15.90;12.10;;;;;;;4.02;100.00;97065.16;7394989;19;20810;-76
2023/05/03 01:54:10;;;;;;;16.43;11.53;;;;;;;4.04;100.00;97052.59;7396179;19;20472;-76
2023/05/03 01:56:37;;;;;;;12.07;10.43;;;;;;;4.25;100.00;97094.41;7396109;19;20340;-76
2023/05/03 01:59:04;;;;;;;13.90;9.17;;;;;;;3.84;100.00;97013.41;7394981;19;20428;-76
2023/05/03 02:01:31;;;;;;;18.50;9.60;;;;;;;4.53;100.00;97093.00;7394609;19;20954;-76
2023/05/03 02:03:59;;;;;;;11.67;7.90;;;;;;;4.54;100.00;97081.47;7396137;19;21002;-76
2023/05/03 02:06:26;;;;;;;10.77;8.03;;;;;;;4.28;100.00;97067.72;7394914;19;20381;-76
2023/05/03 02:08:57;;;;;;;11.27;8.43;;;;;;;4.20;100.00;97068.25;7394463;19;20753;-76
2023/05/03 02:11:24;;;;;;;12.47;9.17;;;;;;;4.22;100.00;97081.84;7394634;19;20402;-76
2023/05/03 02:13:51;;;;;;;14.40;8.73;;;;;;;3.85;100.00;97043.75;7396564;19;20383;-76
2023/05/03 02:16:18;;;;;;;9.53;8.40;;;;;;;4.11;100.00;97068.00;7395403;19;20393;-76
2023/05/03 02:18:45;;;;;;;11.23;8.13;;;;;;;4.12;100.00;97065.13;7395092;19;20972;-76
2023/05/03 02:21:12;;;;;;;10.80;8.97;;;;;;;4.03;100.00;97068.56;7402383;19;20779;-76
2023/05/03 02:23:39;;;;;;;10.17;9.17;;;;;;;3.98;100.00;97060.72;7404194;19;20392;-76
2023/05/03 02:26:06;;;;;;;9.47;8.20;;;;;;;4.14;100.00;97080.59;7402285;19;20397;-76
2023/05/03 02:28:34;;;;;;;14.97;8.90;;;;;;;4.33;100.00;97084.19;7398304;19;20964;-76
2023/05/03 02:31:01;;;;;;;9.90;8.97;;;;;;;4.38;100.00;97078.91;7402045;19;20412;-76
2023/05/03 02:33:28;;;;;;;10.07;9.07;;;;;;;4.38;100.00;97086.00;7401181;19;20931;-76
2023/05/03 02:35:55;;;;;;;10.77;7.67;;;;;;;4.28;100.00;97089.44;7402535;19;20468;-76
2023/05/03 02:38:22;;;;;;;9.97;8.50;;;;;;;4.02;100.00;97052.09;7399961;19;20436;-76
2023/05/03 02:40:49;;;;;;;9.57;8.60;;;;;;;4.04;100.00;97054.44;7402036;19;20393;-76
2023/05/03 02:43:17;;;;;;;11.00;9.00;;;;;;;3.93;100.00;97061.53;7400875;19;20479;-76
2023/05/03 02:45:44;;;;;;;11.47;9.20;;;;;;;4.09;100.00;97039.50;7401982;19;20930;-76
2023/05/03 02:48:11;;;;;;;12.07;8.50;;;;;;;4.58;100.00;97082.53;7399098;19;20449;-76
2023/05/03 02:50:39;;;;;;;12.50;8.90;;;;;;;4.55;100.00;97096.94;7401818;19;20390;-76
2023/05/03 02:53:06;;;;;;;12.00;8.90;;;;;;;4.48;100.00;97074.69;7400164;19;20900;-76
2023/05/03 02:55:33;;;;;;;11.23;9.40;;;;;;;4.46;100.00;97067.13;7402035;19;20372;-76
2023/05/03 02:58:01;;;;;;;11.30;8.57;;;;;;;4.45;100.00;97071.56;7399818;19;20426;-76
2023/05/03 03:00:28;;;;;;;10.40;9.30;;;;;;;4.41;100.00;97083.63;7401377;19;20923;-77
2023/05/03 03:02:55;;;;;;;11.00;8.90;;;;;;;4.21;100.00;97060.13;7401797;19;20408;-76
2023/05/03 03:05:22;;;;;;;12.30;9.27;;;;;;;4.31;100.00;97075.03;7418115;19;20396;-76
2023/05/03 03:07:50;;;;;;;12.17;9.33;;;;;;;4.11;100.00;97054.94;7434382;19;20445;-77
2023/05/03 03:10:17;;;;;;;11.17;10.07;;;;;;;4.39;100.00;97084.94;7438223;19;20361;-77
2023/05/03 03:12:44;;;;;;;10.03;8.40;;;;;;;4.20;100.00;97053.34;7418906;19;20405;-76
2023/05/03 03:15:21;;;;;;;11.20;9.33;;;;;;;4.37;100.00;97079.19;7402555;19;20912;-75
2023/05/03 03:17:49;;;;;;;11.87;9.47;;;;;;;4.34;100.00;97092.81;7400286;19;20445;-75
2023/05/03 03:20:16;;;;;;;9.27;8.00;;;;;;;3.93;100.00;97058.91;7402755;19;20411;-76
2023/05/03 03:22:46;;;;;;;11.50;10.30;;;;;;;4.00;100.00;97075.09;7401594;19;20376;-75
2023/05/03 03:25:12;;;;;;;12.77;9.00;;;;;;;4.09;100.00;97059.66;7402237;19;21239;-76
2023/05/03 03:27:39;;;;;;;12.30;7.97;;;;;;;4.24;100.00;97091.00;7401525;19;20456;-75
2023/05/03 03:30:08;;;;;;;16.50;9.40;;;;;;;4.07;100.00;97069.59;7398507;19;20429;-76
2023/05/03 03:32:43;;;;;;;8.80;7.13;;;;;;;4.13;100.00;97095.47;7403399;19;20715;-76
2023/05/03 03:35:15;;;;;;;14.17;8.97;;;;;;;3.96;100.00;97066.22;7407084;19;20459;-76
2023/05/03 03:37:42;;;;;;;9.10;8.03;;;;;;;3.95;100.00;97062.03;7400554;19;20402;-76
2023/05/03 03:40:10;;;;;;;10.03;8.10;;;;;;;4.03;100.00;97071.19;7399022;19;20377;-76
2023/05/03 03:42:39;;;;;;;10.00;8.37;;;;;;;3.85;100.00;97062.03;7405339;19;20430;-75
2023/05/03 03:45:06;;;;;;;10.53;9.57;;;;;;;3.93;100.00;97077.22;7403572;19;20444;-75
2023/05/03 03:47:33;;;;;;;13.03;8.07;;;;;;;3.83;100.00;97064.16;7404007;19;20385;-76
2023/05/03 03:50:00;;;;;;;9.00;7.80;;;;;;;3.96;100.00;97097.59;7402851;19;20429;-75
2023/05/03 03:52:29;;;;;;;10.70;8.77;;;;;;;3.89;100.00;97104.19;7405246;19;20373;-75
2023/05/03 03:54:56;;;;;;;12.43;8.83;;;;;;;4.08;100.00;97105.97;7403583;19;20492;-76
2023/05/03 03:57:24;;;;;;;13.03;9.20;;;;;;;3.81;100.00;97108.88;7405585;19;20360;-76
2023/05/03 03:59:51;;;;;;;9.83;8.73;;;;;;;3.56;100.00;97074.91;7407500;19;20393;-74
2023/05/03 04:02:18;;;;;;;14.60;9.30;;;;;;;3.74;100.00;97097.09;7405295;19;20392;-75
2023/05/03 04:04:46;;;;;;;10.43;9.23;;;;;;;3.54;100.00;97077.00;7403452;19;20377;-75
2023/05/03 04:07:16;;;;;;;9.47;8.47;;;;;;;3.76;100.00;97098.44;7406723;19;20384;-75
2023/05/03 04:09:43;;;;;;;9.50;8.50;;;;;;;3.64;100.00;97099.75;7401351;19;20428;-75
2023/05/03 04:12:10;;;;;;;10.40;8.33;;;;;;;3.73;100.00;97130.31;7404641;19;20372;-74
2023/05/03 04:14:38;;;;;;;8.93;8.00;;;;;;;3.45;100.00;97092.41;7403631;19;20369;-75
2023/05/03 04:17:05;;;;;;;11.63;8.70;;;;;;;3.71;100.00;97124.56;7405027;19;20896;-75
2023/05/03 04:19:32;;;;;;;16.20;9.03;;;;;;;3.55;100.00;97128.22;7401792;19;20436;-75
2023/05/03 04:22:00;;;;;;;14.20;9.33;;;;;;;3.61;100.00;97129.03;7402138;19;20369;-75
2023/05/03 04:24:29;;;;;;;12.03;8.50;;;;;;;3.41;100.00;97125.34;7403562;19;20915;-74
2023/05/03 04:26:57;;;;;;;13.40;9.27;;;;;;;3.52;100.00;97132.16;7402094;19;20392;-75
2023/05/03 04:29:28;;;;;;;10.87;8.93;;;;;;;3.58;100.00;97134.75;7398503;19;20429;-75
2023/05/03 04:31:56;;;;;;;13.23;9.13;;;;;;;3.61;100.00;97134.25;7401846;19;20392;-75
2023/05/03 04:34:23;;;;;;;9.97;9.03;;;;;;;3.46;100.00;97127.16;7403374;19;20372;-75
2023/05/03 04:36:53;;;;;;;11.07;8.90;;;;;;;3.37;100.00;97139.19;7401149;19;20385;-75
2023/05/03 04:39:21;;;;;;;11.10;10.00;;;;;;;3.17;100.00;97109.38;7402325;19;20430;-75
2023/05/03 04:41:49;;;;;;;10.73;8.47;;;;;;;3.38;100.00;97115.41;7401483;19;20337;-75
2023/05/03 04:44:16;;;;;;;15.77;12.10;;;;;;;3.50;100.00;97123.00;7404888;19;20363;-75
2023/05/03 04:46:44;;;;;;;15.23;11.07;;;;;;;3.60;100.00;97136.06;7401282;19;20393;-75
2023/05/03 04:49:14;;;;;;;13.03;11.10;;;;;;;3.87;100.00;97154.09;7401733;19;20496;-75
2023/05/03 04:51:41;;;;;;;11.50;10.30;;;;;;;3.85;100.00;97138.69;7401592;19;20377;-75
2023/05/03 04:54:08;;;;;;;11.90;10.40;;;;;;;3.91;100.00;97146.53;7408763;19;20377;-75
2023/05/03 04:56:35;;;;;;;12.27;10.10;;;;;;;3.95;100.00;97144.97;7413804;19;20400;-75
2023/05/03 04:59:11;;;;;;;11.87;10.50;;;;;;;3.96;100.00;97157.00;7415621;19;20549;-75
2023/05/03 05:01:38;;;;;;;12.57;10.33;;;;;;;3.71;100.00;97103.66;7410729;19;20375;-74
2023/05/03 05:04:07;;;;;;;13.70;10.10;;;;;;;4.02;100.00;97140.25;7405993;19;20368;-74
2023/05/03 05:06:40;;;;;;;13.50;10.47;;;;;;;4.22;100.00;97157.75;7408321;19;20410;-74
2023/05/03 05:09:26;;;;;;;15.20;11.43;;;;;;;4.33;100.00;97164.53;7411926;19;20441;-74
2023/05/03 05:12:16;;;;;;;13.57;12.13;;;;;;;4.06;100.00;97144.69;7412201;19;20396;-75
2023/05/03 05:14:43;;;;;;;14.40;10.70;;;;;;;4.42;100.00;97178.66;7409217;19;20424;-74
2023/05/03 05:17:11;;;;;;;20.10;10.87;;;;;;;4.07;100.00;97171.66;7408948;19;20418;-75
2023/05/03 05:19:40;;;;;;;23.20;12.17;;;;;;;4.49;100.00;97189.63;7412154;19;20469;-74
2023/05/03 05:22:07;;;;;;;14.27;11.53;;;;;;;4.80;100.00;97194.78;7407105;19;20397;-75
2023/05/03 05:24:41;;;;;;;12.73;10.50;;;;;;;4.34;100.00;97124.22;7408975;19;20376;-74
2023/05/03 05:27:10;;;;;;;15.83;10.17;;;;;;;4.82;100.00;97175.16;7408177;19;20448;-74
2023/05/03 05:29:38;;;;;;;15.90;13.13;;;;;;;5.04;100.00;97203.63;7407489;19;20436;-75
2023/05/03 05:32:05;;;;;;;11.07;9.93;;;;;;;5.05;100.00;97207.78;7409104;19;20381;-75
2023/05/03 05:34:32;;;;;;;11.53;10.30;;;;;;;4.55;100.00;97206.91;7410518;19;20443;-74
2023/05/03 05:37:12;;;;;;;11.50;10.30;;;;;;;4.73;100.00;97208.19;7407780;19;20368;-74
2023/05/03 05:39:39;;;;;;;12.87;10.83;;;;;;;4.70;100.00;97188.53;7399499;19;20428;-74
2023/05/03 05:42:06;;;;;;;12.83;11.47;;;;;;;5.04;100.00;97221.97;7398421;19;20473;-73
2023/05/03 05:44:33;;;;;;;21.33;12.20;;;;;;;4.83;100.00;97187.19;7400253;19;20380;-73
2023/05/03 05:47:01;;;;;;;15.53;11.53;;;;;;;4.67;100.00;97204.00;7397589;19;20396;-73
2023/05/03 05:49:28;;;;;;;13.90;9.90;;;;;;;4.50;100.00;97188.59;7397894;19;21028;-73
2023/05/03 05:51:56;;;;;;;12.17;10.03;;;;;;;4.94;100.00;97230.66;7398512;19;20939;-73
2023/05/03 05:54:23;;;;;;;13.20;9.97;;;;;;;4.79;100.00;97206.31;7400753;19;20380;-74
2023/05/03 05:56:50;;;;;;;12.57;9.70;;;;;;;4.90;100.00;97195.53;7399598;19;20413;-73
2023/05/03 05:59:18;;;;;;;10.47;9.37;;;;;;;4.80;100.00;97215.75;7396401;19;20496;-74
2023/05/03 06:01:45;;;;;;;14.00;9.93;;;;;;;4.77;100.00;97224.13;7398695;19;20421;-74
2023/05/03 06:04:15;;;;;;;12.30;9.40;;;;;;;4.47;100.00;97151.69;7396171;19;20419;-74
2023/05/03 06:06:43;;;;;;;15.80;9.70;;;;;;;5.07;100.00;97231.13;7395979;19;20415;-74
2023/05/03 06:09:10;;;;;;;10.63;9.37;;;;;;;5.07;100.00;97218.00;7393189;19;20468;-74
2023/05/03 06:11:50;;;;;;;13.53;10.10;;;;;;;5.07;100.00;97234.53;7396416;19;20371;-74
2023/05/03 06:14:19;;;;;;;13.93;9.63;;;;;;;5.36;100.00;97233.91;7394715;19;20399;-75
2023/05/03 06:16:47;;;;;;;12.60;9.50;;;;;;;5.19;100.00;97219.28;7395976;19;20397;-74
2023/05/03 06:19:13;;;;;;;11.43;9.90;;;;;;;5.47;100.00;97240.63;7392758;19;20420;-74
2023/05/03 06:21:40;;;;;;;9.70;8.67;;;;;;;5.40;100.00;97211.31;7397276;19;20424;-74
2023/05/03 06:24:07;;;;;;;16.73;9.80;;;;;;;5.50;100.00;97227.78;7394924;19;20373;-74
2023/05/03 06:26:34;;;;;;;13.13;9.37;;;;;;;5.76;100.00;97251.25;7395819;19;20352;-75
2023/05/03 06:29:02;;;;;;;11.23;9.80;;;;;;;5.78;100.00;97218.44;7393455;19;20427;-74
2023/05/03 06:31:29;;;;;;;14.30;10.33;;;;;;;5.93;100.00;97217.56;7397286;19;20412;-75
2023/05/03 06:33:57;;;;;;;15.17;10.90;;;;;;;5.99;100.00;97232.22;7394516;19;20389;-74
2023/05/03 06:36:26;;;;;;;15.13;9.20;;;;;;;6.24;100.00;97225.97;7396154;19;20400;-74
2023/05/03 06:38:53;;;;;;;12.33;9.20;;;;;;;6.31;100.00;97234.34;7392995;19;20469;-75
2023/05/03 06:41:20;;;;;;;15.40;10.40;;;;;;;6.36;100.00;97225.63;7395243;19;20425;-74
2023/05/03 06:43:47;;;;;;;16.13;9.50;;;;;;;6.56;100.00;97211.53;7394310;19;20361;-75
2023/05/03 06:46:15;;;;;;;12.50;9.60;;;;;;;6.57;100.00;97236.75;7395265;19;20368;-74
2023/05/03 06:48:45;;;;;;;11.63;10.27;;;;;;;6.79;100.00;97229.94;7392576;19;20428;-74
2023/05/03 06:51:13;;;;;;;11.17;9.50;;;;;;;6.46;100.00;97215.81;7392741;19;20381;-74
2023/05/03 06:53:40;;;;;;;10.13;8.60;;;;;;;6.65;100.00;97238.75;7394481;19;20414;-75
2023/05/03 06:56:07;;;;;;;14.03;10.20;;;;;;;6.94;100.00;97238.72;7392224;19;20412;-75
2023/05/03 06:58:34;;;;;;;13.83;10.40;;;;;;;7.16;100.00;97214.53;7394392;19;20405;-74
2023/05/03 07:01:01;;;;;;;15.83;10.50;;;;;;;7.16;100.00;97230.31;7393797;19;20897;-74
2023/05/03 07:03:27;;;;;;;13.77;10.30;;;;;;;7.21;100.00;97211.84;7393880;19;20381;-75
2023/05/03 07:05:55;;;;;;;14.07;9.70;;;;;;;7.87;100.00;97245.16;7396095;19;20396;-74
2023/05/03 07:08:21;;;;;;;12.47;9.50;;;;;;;7.90;100.00;97213.03;7400309;19;20509;-74
2023/05/03 07:10:48;;;;;;;12.67;10.77;;;;;;;8.34;100.00;97222.31;7402380;19;20420;-74
2023/05/03 07:13:15;;;;;;;13.40;9.83;;;;;;;8.23;100.00;97240.16;7401379;19;20385;-74
2023/05/03 07:15:44;;;;;;;13.73;8.73;;;;;;;8.35;100.00;97202.84;7399793;19;20380;-75
2023/05/03 07:18:11;;;;;;;14.20;9.33;;;;;;;8.68;100.00;97224.66;7397353;19;20412;-75
2023/05/03 07:20:38;;;;;;;12.03;8.63;;;;;;;8.84;100.00;97212.78;7399235;19;20741;-75
2023/05/03 07:23:06;;;;;;;16.17;7.73;;;;;;;8.81;100.00;97232.59;7400815;19;20385;-74
2023/05/03 07:25:33;;;;;;;8.07;7.03;;;;;;;8.83;100.00;97221.75;7399222;19;20373;-75
2023/05/03 07:28:00;;;;;;;13.23;8.37;;;;;;;8.67;100.00;97194.09;7401531;19;20388;-75
2023/05/03 07:30:28;;;;;;;11.30;6.30;;;;;;;8.50;100.00;97197.31;7397332;19;20352;-74
2023/05/03 07:32:55;;;;;;;10.73;6.10;;;;;;;8.91;100.00;97196.53;7400439;19;20393;-75
2023/05/03 07:35:22;;;;;;;6.90;5.87;;;;;;;8.99;100.00;97216.97;7398874;19;20761;-74
2023/05/03 07:37:49;;;;;;;6.77;6.07;;;;;;;9.32;100.00;97221.03;7398490;19;20956;-74
2023/05/03 07:40:16;;;;;;;8.97;6.60;;;;;;;9.90;100.00;97219.56;7398969;19;20380;-74
2023/05/03 07:42:43;;;;;;;11.47;5.67;;;;;;;9.91;100.00;97223.75;7402315;19;20380;-75
2023/05/03 07:45:10;;;;;;;7.47;5.00;;;;;;;9.97;100.00;97202.19;7400514;19;20390;-75
2023/05/03 07:47:38;;;;;;;10.27;5.60;;;;;;;10.14;100.00;97229.81;7400024;19;20376;-74
2023/05/03 07:50:06;;;;;;;9.30;6.30;;;;;;;9.59;100.00;97227.34;7398682;19;20427;-74
2023/05/03 07:52:37;;;;;;;9.20;6.03;;;;;;;9.68;100.00;97207.09;7400846;19;20381;-74
2023/05/03 07:55:05;;;;;;;7.47;5.77;;;;;;;9.95;100.00;97201.72;7398796;19;20454;-74
2023/05/03 07:57:32;;;;;;;6.50;5.87;;;;;;;10.43;100.00;97216.97;7400087;19;20901;-75
2023/05/03 07:59:59;;;;;;;7.47;5.07;;;;;;;10.63;100.00;97203.22;7398850;19;20385;-74
2023/05/03 08:02:27;;;;;;;5.43;4.90;;;;;;;11.22;100.00;97219.63;7400713;19;20847;-75
2023/05/03 08:04:54;;;;;;;6.80;5.40;;;;;;;11.19;100.00;97190.34;7398767;19;20825;-75
2023/05/03 08:07:22;;;;;;;9.23;5.27;;;;;;;11.45;100.00;97206.28;7401168;19;20399;-76
2023/05/03 08:09:52;;;;;;;8.00;5.30;;;;;;;11.02;100.00;97208.81;7396370;19;20807;-74
2023/05/03 08:12:19;;;;;;;6.80;5.97;;;;;;;11.23;100.00;97193.94;7400844;19;20369;-75
2023/05/03 08:14:46;;;;;;;5.30;4.80;;;;;;;11.09;100.00;97217.88;7400428;19;20355;-74
2023/05/03 08:17:13;;;;;;;10.80;6.03;;;;;;;10.87;100.00;97204.72;7396957;19;20341;-75
2023/05/03 08:19:40;;;;;;;7.10;5.60;;;;;;;11.24;100.00;97211.38;7397574;19;21245;-75
2023/05/03 08:22:09;;;;;;;6.67;5.90;;;;;;;11.08;100.00;97223.47;7398009;19;20376;-75
2023/05/03 08:24:37;;;;;;;8.07;5.57;;;;;;;10.83;100.00;97214.38;7399092;19;20372;-75
2023/05/03 08:27:05;;;;;;;8.30;6.47;;;;;;;10.59;100.00;97215.50;7397439;19;20372;-75
2023/05/03 08:29:32;;;;;;;7.47;6.77;;;;;;;11.22;100.00;97206.41;7396594;19;20440;-75
2023/05/03 08:31:59;;;;;;;8.17;5.60;;;;;;;11.50;100.00;97208.78;7397057;19;20375;-75
2023/05/03 08:34:26;;;;;;;8.67;5.70;;;;;;;11.66;100.00;97201.94;7397080;19;20375;-75
2023/05/03 08:36:52;;;;;;;7.30;6.47;;;;;;;11.74;100.00;97218.91;7397872;19;20380;-74
2023/05/03 08:39:19;;;;;;;7.63;6.43;;;;;;;12.01;100.00;97194.78;7398417;19;20404;-74
2023/05/03 08:41:47;;;;;;;6.80;5.50;;;;;;;12.14;100.00;97220.34;7396713;19;20364;-75
2023/05/03 08:44:21;;;;;;;7.30;6.50;;;;;;;12.06;100.00;97215.06;7398529;19;20381;-75
2023/05/03 08:46:51;;;;;;;7.77;6.60;;;;;;;12.36;100.00;97221.25;7396078;19;20368;-75
2023/05/03 08:49:18;;;;;;;7.30;5.97;;;;;;;12.61;100.00;97217.75;7422039;19;20439;-76
2023/05/03 08:51:47;;;;;;;9.60;6.43;;;;;;;12.55;100.00;97226.97;7433060;19;20401;-75
2023/05/03 08:54:19;;;;;;;7.10;6.40;;;;;;;11.94;100.00;97213.03;7434235;19;20393;-76
2023/05/03 08:56:47;;;;;;;10.50;7.30;;;;;;;12.42;100.00;97212.03;7407983;19;20381;-75
2023/05/03 08:59:16;;;;;;;6.93;6.23;;;;;;;11.96;100.00;97183.56;7399082;19;20437;-75
2023/05/03 09:01:43;;;;;;;6.90;6.30;;;;;;;13.05;100.00;97220.25;7397500;19;20381;-75
2023/05/03 09:04:10;;;;;;;8.53;5.83;;;;;;;12.83;100.00;97222.06;7395715;19;20372;-75
2023/05/03 09:06:37;;;;;;;6.70;4.63;;;;;;;12.76;100.00;97215.69;7397597;19;20353;-75
2023/05/03 09:09:08;;;;;;;7.10;6.40;;;;;;;12.50;100.00;97211.22;7395639;19;20472;-75
2023/05/03 09:11:37;;;;;;;6.90;5.27;;;;;;;12.24;100.00;97216.59;7395112;19;20425;-75
2023/05/03 09:14:16;;;;;;;6.07;5.47;;;;;;;12.41;100.00;97221.84;7395627;19;20448;-74
2023/05/03 09:16:45;;;;;;;5.63;5.10;;;;;;;12.37;100.00;97220.94;7397715;19;20353;-74
2023/05/03 09:19:14;;;;;;;7.77;5.40;;;;;;;12.84;100.00;97210.34;7394886;19;20593;-75
2023/05/03 09:21:49;;;;;;;6.57;5.27;;;;;;;12.61;100.00;97222.28;7397804;19;20388;-75
2023/05/03 09:24:20;;;;;;;7.53;5.80;;;;;;;12.39;100.00;97205.47;7396264;19;20924;-75
2023/05/03 09:26:50;;;;;;;7.10;4.63;;;;;;;12.16;99.57;97200.72;7397760;19;20372;-74
2023/05/03 09:29:30;;;;;;;6.80;4.83;;;;;;;12.49;99.56;97227.47;7395478;19;20403;-74
2023/05/03 09:32:04;;;;;;;7.47;6.27;;;;;;;11.91;100.00;97220.84;7396862;19;20877;-75
2023/05/03 09:34:32;;;;;;;5.50;5.00;;;;;;;11.89;100.00;97217.72;7397356;19;20376;-75
2023/05/03 09:36:59;;;;;;;5.43;4.93;;;;;;;12.01;100.00;97189.47;7395163;19;20404;-75
2023/05/03 09:39:26;;;;;;;5.67;5.07;;;;;;;12.24;100.00;97213.94;7396973;19;20413;-74
2023/05/03 09:41:53;;;;;;;5.83;4.97;;;;;;;12.50;100.00;97154.75;7397296;19;20333;-75
2023/05/03 09:44:40;;;;;;;6.87;5.53;;;;;;;12.90;98.80;97189.69;7398345;19;20889;-75
2023/05/03 09:47:08;;;;;;;9.33;6.33;;;;;;;12.57;97.77;97197.50;7395962;19;20352;-75
2023/05/03 09:49:37;;;;;;;6.40;5.83;;;;;;;12.49;99.59;97204.38;7392872;19;20453;-75
2023/05/03 09:52:06;;;;;;;8.87;6.07;;;;;;;13.02;97.10;97211.03;7397181;19;20365;-75
2023/05/03 09:54:36;;;;;;;5.70;5.10;;;;;;;12.75;97.51;97198.97;7396115;19;20373;-74
2023/05/03 09:57:05;;;;;;;6.13;5.10;;;;;;;12.55;97.31;97192.47;7395881;19;20803;-75
2023/05/03 09:59:33;;;;;;;6.37;5.77;;;;;;;13.06;97.85;97205.88;7394426;19;20409;-75
2023/05/03 10:02:03;;;;;;;6.40;5.17;;;;;;;13.42;96.76;97197.41;7396197;19;20690;-74
2023/05/03 10:04:38;;;;;;;5.43;4.60;;;;;;;13.38;97.23;97173.38;7395995;19;20349;-75
2023/05/03 10:07:11;;;;;;;5.27;4.87;;;;;;;13.15;94.19;97203.94;7396058;19;20908;-74
2023/05/03 10:09:41;;;;;;;6.87;5.70;;;;;;;13.90;93.09;97212.88;7393287;19;20806;-75
2023/05/03 10:12:11;;;;;;;5.87;5.37;;;;;;;13.15;95.82;97198.63;7396504;19;20373;-75
2023/05/03 10:14:44;;;;;;;6.70;5.80;;;;;;;12.83;94.99;97160.25;7395481;19;20393;-75
2023/05/03 10:17:22;;;;;;;6.27;5.77;;;;;;;13.77;93.01;97196.06;7393988;19;20372;-75
2023/05/03 10:20:29;;;;;;;8.03;6.10;;;;;;;14.10;94.34;97152.75;7396066;19;20368;-75
2023/05/03 10:23:12;;;;;;;5.27;4.57;;;;;;;14.43;90.82;97196.09;7395226;19;20403;-75
2023/05/03 10:26:06;;;;;;;4.70;4.30;;;;;;;13.33;93.02;97192.16;7395409;19;20341;-75
2023/05/03 10:28:33;;;;;;;6.70;5.20;;;;;;;12.97;95.70;97158.91;7392210;19;20425;-75
2023/05/03 10:31:01;;;;;;;5.80;4.30;;;;;;;12.35;95.18;97132.94;7393021;19;20376;-74
2023/05/03 10:33:33;;;;;;;7.03;4.57;;;;;;;13.04;93.75;97184.94;7394990;19;20341;-74
2023/05/03 10:36:06;;;;;;;5.53;4.70;;;;;;;13.42;94.29;97174.28;7395410;19;20373;-75
2023/05/03 10:38:33;;;;;;;6.50;4.80;;;;;;;12.98;91.90;97160.47;7392384;19;20968;-75
2023/05/03 10:41:02;;;;;;;7.03;4.40;;;;;;;13.15;93.46;97166.78;7398867;19;20416;-75
2023/05/03 10:43:29;;;;;;;5.07;4.20;;;;;;;13.36;90.65;97188.88;7401211;19;20412;-75
2023/05/03 10:46:00;;;;;;;4.77;4.33;;;;;;;13.39;91.40;97179.47;7402809;19;20412;-75
2023/05/03 10:48:29;;;;;;;5.40;5.00;;;;;;;13.52;91.43;97189.84;7399782;19;20984;-75
2023/05/03 10:51:17;;;;;;;4.40;4.07;;;;;;;14.57;89.52;97177.19;7400585;19;20455;-75
2023/05/03 10:53:44;;;;;;;5.90;5.23;;;;;;;15.14;88.53;97170.22;7401942;19;20738;-75
2023/05/03 10:56:14;;;;;;;5.90;5.20;;;;;;;14.76;86.11;97152.69;7402621;19;20373;-74
2023/05/03 10:58:43;;;;;;;5.83;5.30;;;;;;;14.47;88.48;97143.00;7402975;19;20400;-75
2023/05/03 11:01:21;;;;;;;7.60;6.13;;;;;;;13.45;88.71;97157.69;7401786;19;20381;-75
2023/05/03 11:04:00;;;;;;;5.80;4.43;;;;;;;14.26;88.32;97182.16;7403471;19;20384;-75
2023/05/03 11:06:34;;;;;;;5.60;5.10;;;;;;;13.99;89.05;97163.03;7400816;19;20924;-75
2023/05/03 11:09:04;;;;;;;4.90;3.63;;;;;;;14.14;87.96;97151.78;7400980;19;20431;-75
2023/05/03 11:11:32;;;;;;;4.30;3.90;;;;;;;14.75;87.00;97167.09;7398830;19;20368;-75
2023/05/03 11:13:59;;;;;;;5.40;4.53;;;;;;;14.70;87.74;97152.13;7399400;19;20376;-75
2023/05/03 11:16:27;;;;;;;7.10;4.30;;;;;;;13.95;86.31;97142.75;7401100;19;20372;-75
2023/05/03 11:18:55;;;;;;;3.90;3.53;;;;;;;14.25;84.66;97146.03;7398089;19;20400;-74
2023/05/03 11:21:22;;;;;;;4.37;4.00;;;;;;;14.70;83.96;97162.78;7400847;19;20368;-75
2023/05/03 11:23:49;;;;;;;4.77;4.40;;;;;;;15.50;82.82;97159.50;7400760;19;20347;-75
2023/05/03 11:26:16;;;;;;;4.07;3.77;;;;;;;14.83;81.18;97139.59;7397663;19;20602;-75
2023/05/03 11:28:44;;;;;;;5.90;5.07;;;;;;;15.42;80.64;97146.28;7398314;19;20413;-75
2023/05/03 11:31:12;;;;;;;4.03;3.67;;;;;;;15.39;79.09;97155.75;7398981;19;20416;-75
2023/05/03 11:33:40;;;;;;;5.00;4.60;;;;;;;15.92;80.28;97164.50;7399608;19;20369;-75
2023/05/03 11:36:08;;;;;;;5.17;4.67;;;;;;;16.56;77.90;97160.81;7400331;19;20746;-75